createdAt,value
2023-07-31T00:01:25.755Z,2.83
2023-07-31T00:03:53.862Z,2.63
2023-07-31T00:06:21.946Z,2.23
2023-07-31T00:08:49.924Z,2.83
2023-07-31T00:11:17.889Z,3.07
2023-07-31T00:13:47.265Z,2.30
2023-07-31T00:16:15.693Z,2.17
2023-07-31T00:18:43.701Z,2.80
2023-07-31T00:21:11.678Z,3.10
2023-07-31T00:23:39.671Z,2.73
2023-07-31T00:26:07.645Z,2.67
2023-07-31T00:28:35.687Z,2.67
2023-07-31T00:31:05.489Z,2.33
2023-07-31T00:33:33.675Z,3.30
2023-07-31T00:36:01.765Z,2.57
2023-07-31T00:38:29.738Z,2.90
2023-07-31T00:40:57.700Z,2.43
2023-07-31T00:43:26.680Z,2.50
2023-07-31T00:45:54.662Z,2.83
2023-07-31T00:48:24.093Z,2.37
2023-07-31T00:50:52.321Z,2.30
2023-07-31T00:53:20.293Z,2.40
2023-07-31T00:55:48.240Z,3.70
2023-07-31T00:58:16.236Z,2.60
2023-07-31T01:00:45.036Z,5.90
2023-07-31T01:03:13.221Z,2.73
2023-07-31T01:05:47.454Z,2.10
2023-07-31T01:08:21.872Z,2.07
2023-07-31T01:10:52.907Z,2.50
2023-07-31T01:13:20.895Z,2.53
2023-07-31T01:15:48.871Z,2.00
2023-07-31T01:18:16.840Z,1.93
2023-07-31T01:20:46.617Z,6.10
2023-07-31T01:23:37.849Z,2.20
2023-07-31T01:26:07.700Z,3.50
2023-07-31T01:28:40.837Z,2.00
2023-07-31T01:31:09.429Z,2.20
2023-07-31T01:33:37.562Z,1.93
2023-07-31T01:36:06.037Z,2.20
2023-07-31T01:38:34.031Z,2.47
2023-07-31T01:41:01.975Z,3.30
2023-07-31T01:43:31.321Z,2.90
2023-07-31T01:45:59.285Z,2.40
2023-07-31T01:48:27.268Z,3.90
2023-07-31T01:50:55.279Z,2.30
2023-07-31T01:53:23.224Z,2.60
2023-07-31T01:55:51.194Z,3.00
2023-07-31T01:58:19.177Z,2.87
2023-07-31T02:00:48.569Z,2.17
2023-07-31T02:03:16.650Z,2.30
2023-07-31T02:05:46.934Z,2.10
2023-07-31T02:08:14.890Z,2.83
2023-07-31T02:10:42.924Z,2.10
2023-07-31T02:13:10.918Z,2.33
2023-07-31T02:15:38.921Z,2.40
2023-07-31T02:18:08.296Z,3.03
2023-07-31T02:20:37.262Z,2.30
2023-07-31T02:23:05.220Z,2.40
2023-07-31T02:25:33.238Z,2.60
2023-07-31T02:28:01.241Z,2.67
2023-07-31T02:30:28.224Z,4.30
2023-07-31T02:32:56.216Z,2.97
2023-07-31T02:35:25.810Z,2.20
2023-07-31T02:37:53.827Z,2.30
2023-07-31T02:40:21.796Z,2.47
2023-07-31T02:42:49.763Z,2.63
2023-07-31T02:45:17.710Z,2.30
2023-07-31T02:47:45.694Z,4.70
2023-07-31T02:50:13.734Z,3.00
2023-07-31T02:52:43.108Z,3.00
2023-07-31T02:55:11.115Z,4.63
2023-07-31T02:57:39.087Z,2.47
2023-07-31T03:00:08.603Z,2.80
2023-07-31T03:02:36.658Z,2.30
2023-07-31T03:05:04.864Z,2.20
2023-07-31T03:07:32.822Z,2.50
2023-07-31T03:10:02.224Z,2.47
2023-07-31T03:12:30.189Z,3.43
2023-07-31T03:14:58.164Z,2.67
2023-07-31T03:17:26.143Z,2.20
2023-07-31T03:19:54.134Z,2.07
2023-07-31T03:22:22.095Z,3.03
2023-07-31T03:24:50.085Z,4.00
2023-07-31T03:27:19.422Z,2.60
2023-07-31T03:29:47.421Z,4.17
2023-07-31T03:32:15.603Z,5.47
2023-07-31T03:34:43.551Z,2.30
2023-07-31T03:37:11.478Z,2.50
2023-07-31T03:39:39.475Z,2.23
2023-07-31T03:42:08.418Z,2.73
2023-07-31T03:44:37.915Z,2.40
2023-07-31T03:47:06.485Z,2.83
2023-07-31T03:49:34.666Z,2.20
2023-07-31T03:52:02.606Z,2.47
2023-07-31T03:54:30.562Z,2.40
2023-07-31T03:56:58.496Z,3.07
2023-07-31T03:59:26.501Z,2.27
2023-07-31T04:01:55.832Z,2.60
2023-07-31T04:04:23.783Z,2.40
2023-07-31T04:06:51.746Z,2.50
2023-07-31T04:09:19.765Z,3.00
2023-07-31T04:11:47.707Z,2.60
2023-07-31T04:14:15.849Z,2.43
2023-07-31T04:16:43.908Z,4.33
2023-07-31T04:19:17.844Z,2.60
2023-07-31T04:21:45.838Z,2.17
2023-07-31T04:24:13.775Z,2.27
2023-07-31T04:26:42.072Z,2.67
2023-07-31T04:29:10.375Z,3.90
2023-07-31T04:31:39.854Z,2.60
2023-07-31T04:34:08.045Z,2.33
2023-07-31T04:36:37.602Z,3.53
2023-07-31T04:39:05.610Z,2.70
2023-07-31T04:41:33.591Z,2.03
2023-07-31T04:44:01.616Z,3.10
2023-07-31T04:46:29.599Z,2.23
2023-07-31T04:48:57.637Z,2.60
2023-07-31T04:51:26.354Z,2.30
2023-07-31T04:53:55.690Z,2.10
2023-07-31T04:56:23.674Z,2.50
2023-07-31T04:58:51.641Z,3.27
2023-07-31T05:01:19.614Z,2.27
2023-07-31T05:03:47.695Z,2.40
2023-07-31T05:06:16.488Z,2.37
2023-07-31T05:08:44.511Z,4.40
2023-07-31T05:11:14.437Z,2.30
2023-07-31T05:13:42.364Z,1.97
2023-07-31T05:16:10.347Z,2.33
2023-07-31T05:18:38.377Z,5.97
2023-07-31T05:21:06.390Z,2.50
2023-07-31T05:23:34.384Z,2.10
2023-07-31T05:26:06.061Z,2.57
2023-07-31T05:28:36.392Z,2.30
2023-07-31T05:31:04.414Z,2.43
2023-07-31T05:33:32.472Z,2.30
2023-07-31T05:36:00.497Z,2.53
2023-07-31T05:38:28.444Z,2.40
2023-07-31T05:40:56.436Z,2.40
2023-07-31T05:43:24.472Z,2.40
2023-07-31T05:45:53.821Z,2.10
2023-07-31T05:48:21.891Z,2.20
2023-07-31T05:50:49.885Z,2.17
2023-07-31T05:53:17.893Z,2.27
2023-07-31T05:55:45.853Z,2.27
2023-07-31T05:58:13.803Z,2.40
2023-07-31T06:00:42.201Z,2.13
2023-07-31T06:03:11.577Z,2.43
2023-07-31T06:05:39.606Z,2.00
2023-07-31T06:08:07.568Z,2.80
2023-07-31T06:10:35.974Z,2.63
2023-07-31T06:13:03.931Z,2.60
2023-07-31T06:15:31.887Z,2.03
2023-07-31T06:18:00.260Z,2.23
2023-07-31T06:20:29.668Z,2.00
2023-07-31T06:22:57.707Z,1.93
2023-07-31T06:25:25.676Z,2.20
2023-07-31T06:27:53.620Z,2.77
2023-07-31T06:30:21.599Z,3.57
2023-07-31T06:32:49.562Z,1.90
2023-07-31T06:35:17.505Z,2.10
2023-07-31T06:37:46.877Z,2.40
2023-07-31T06:40:14.807Z,2.00
2023-07-31T06:42:42.767Z,2.50
2023-07-31T06:45:11.652Z,2.73
2023-07-31T06:47:39.627Z,2.10
2023-07-31T06:50:08.259Z,2.00
2023-07-31T06:52:36.210Z,4.37
2023-07-31T06:55:06.056Z,2.00
2023-07-31T06:57:34.108Z,2.70
2023-07-31T07:00:02.111Z,2.30
2023-07-31T07:02:30.119Z,2.20
2023-07-31T07:04:58.164Z,2.30
2023-07-31T07:07:26.164Z,2.20
2023-07-31T07:09:54.193Z,2.47
2023-07-31T07:12:23.554Z,2.60
2023-07-31T07:14:51.592Z,2.10
2023-07-31T07:17:19.518Z,2.10
2023-07-31T07:19:47.725Z,1.90
2023-07-31T07:22:15.672Z,1.90
2023-07-31T07:24:43.650Z,1.90
2023-07-31T07:27:11.621Z,2.10
2023-07-31T07:29:41.470Z,1.90
2023-07-31T07:32:10.110Z,2.43
2023-07-31T07:34:38.101Z,2.70
2023-07-31T07:37:06.626Z,2.30
2023-07-31T07:39:34.601Z,2.03
2023-07-31T07:42:02.599Z,2.10
2023-07-31T07:44:30.559Z,2.07
2023-07-31T07:46:59.953Z,3.73
2023-07-31T07:49:27.968Z,2.50
2023-07-31T07:51:55.943Z,2.20
2023-07-31T07:54:24.428Z,2.10
2023-07-31T07:56:52.506Z,4.53
2023-07-31T07:59:20.693Z,1.90
2023-07-31T08:01:48.616Z,2.00
2023-07-31T08:04:17.968Z,2.10
2023-07-31T08:06:46.143Z,2.13
2023-07-31T08:09:16.974Z,1.93
2023-07-31T08:11:45.028Z,2.23
2023-07-31T08:14:12.990Z,2.20
2023-07-31T08:16:41.155Z,2.00
2023-07-31T08:19:09.559Z,2.20
2023-07-31T08:21:39.003Z,1.93
2023-07-31T08:24:07.103Z,1.90
2023-07-31T08:26:35.188Z,2.10
2023-07-31T08:29:03.125Z,1.90
2023-07-31T08:31:31.486Z,2.00
2023-07-31T08:33:59.509Z,2.20
2023-07-31T08:36:29.524Z,1.90
2023-07-31T08:39:00.052Z,2.00
2023-07-31T08:41:28.795Z,2.30
2023-07-31T08:43:56.789Z,2.10
2023-07-31T08:46:24.805Z,2.20
2023-07-31T08:48:53.919Z,1.80
2023-07-31T08:51:22.464Z,2.00
2023-07-31T08:53:50.458Z,2.50
2023-07-31T08:56:19.889Z,2.30
2023-07-31T08:58:47.820Z,1.97
2023-07-31T09:01:15.767Z,3.70
2023-07-31T09:03:43.907Z,2.37
2023-07-31T09:06:12.017Z,2.10
2023-07-31T09:08:39.998Z,2.10
2023-07-31T09:11:08.198Z,3.17
2023-07-31T09:13:37.524Z,2.30
2023-07-31T09:16:05.896Z,2.20
2023-07-31T09:18:33.844Z,2.10
2023-07-31T09:21:05.156Z,2.80
2023-07-31T09:23:46.125Z,2.00
2023-07-31T09:26:14.158Z,2.20
2023-07-31T09:28:43.551Z,2.10
2023-07-31T09:31:11.615Z,2.53
2023-07-31T09:33:48.570Z,2.50
2023-07-31T09:36:16.532Z,1.90
2023-07-31T09:38:46.436Z,2.10
2023-07-31T09:41:14.363Z,1.93
2023-07-31T09:43:43.760Z,1.97
2023-07-31T09:46:15.624Z,2.17
2023-07-31T09:48:43.629Z,2.20
2023-07-31T09:51:11.570Z,2.00
2023-07-31T09:53:39.499Z,2.20
2023-07-31T09:56:07.487Z,1.80
2023-07-31T09:58:37.224Z,2.10
2023-07-31T10:01:06.617Z,2.10
2023-07-31T10:03:34.737Z,2.47
2023-07-31T10:06:02.719Z,2.30
2023-07-31T10:08:32.350Z,2.17
2023-07-31T10:11:00.963Z,2.33
2023-07-31T10:13:29.189Z,1.90
2023-07-31T10:15:57.348Z,3.07
2023-07-31T10:18:26.710Z,1.90
2023-07-31T10:20:54.722Z,2.50
2023-07-31T10:23:22.805Z,1.80
2023-07-31T10:25:50.761Z,2.20
2023-07-31T10:28:19.261Z,3.93
2023-07-31T10:30:47.230Z,1.90
2023-07-31T10:33:15.265Z,2.03
2023-07-31T10:35:44.680Z,2.00
2023-07-31T10:38:13.724Z,1.90
2023-07-31T10:40:41.682Z,2.20
2023-07-31T10:43:12.451Z,2.10
2023-07-31T10:45:42.350Z,1.80
2023-07-31T10:48:15.362Z,2.20
2023-07-31T10:50:50.266Z,2.07
2023-07-31T10:53:25.152Z,2.37
2023-07-31T10:55:53.597Z,2.63
2023-07-31T10:58:22.137Z,2.10
2023-07-31T11:00:50.727Z,2.00
2023-07-31T11:03:19.419Z,2.20
2023-07-31T11:05:54.562Z,2.30
2023-07-31T11:08:23.514Z,2.73
2023-07-31T11:10:52.387Z,2.00
2023-07-31T11:13:20.472Z,2.10
2023-07-31T11:15:48.420Z,2.03
2023-07-31T11:18:17.958Z,2.40
2023-07-31T11:20:46.019Z,2.03
2023-07-31T11:23:15.366Z,1.97
2023-07-31T11:25:43.383Z,1.90
2023-07-31T11:28:12.004Z,1.90
2023-07-31T11:30:40.149Z,2.10
2023-07-31T11:33:08.378Z,1.70
2023-07-31T11:35:37.710Z,2.63
2023-07-31T11:38:05.916Z,2.10
2023-07-31T11:40:42.807Z,2.03
2023-07-31T11:43:12.418Z,2.00
2023-07-31T11:45:40.664Z,2.20
2023-07-31T11:48:08.751Z,2.10
2023-07-31T11:50:36.820Z,2.40
2023-07-31T11:53:06.149Z,2.30
2023-07-31T11:55:37.070Z,2.20
2023-07-31T11:58:05.253Z,2.13
2023-07-31T12:00:33.330Z,2.10
2023-07-31T12:03:01.435Z,2.10
2023-07-31T12:05:29.487Z,2.20
2023-07-31T12:07:57.544Z,2.03
2023-07-31T12:10:29.369Z,1.90
2023-07-31T12:13:03.624Z,2.20
2023-07-31T12:15:38.857Z,2.03
2023-07-31T12:18:07.866Z,2.00
2023-07-31T12:20:36.059Z,2.00
2023-07-31T12:23:04.914Z,2.90
2023-07-31T12:25:33.890Z,2.20
2023-07-31T12:28:12.413Z,2.00
2023-07-31T12:30:41.353Z,2.20
2023-07-31T12:33:14.340Z,2.07
2023-07-31T12:35:44.342Z,2.43
2023-07-31T12:38:12.479Z,2.10
2023-07-31T12:40:40.899Z,2.77
2023-07-31T12:43:10.543Z,2.17
2023-07-31T12:45:38.607Z,2.17
2023-07-31T12:48:06.701Z,1.97
2023-07-31T12:50:37.664Z,2.40
2023-07-31T12:53:05.938Z,2.00
2023-07-31T12:55:35.339Z,2.37
2023-07-31T12:58:03.394Z,2.40
2023-07-31T13:00:32.753Z,2.10
2023-07-31T13:03:01.410Z,3.60
2023-07-31T13:05:29.460Z,1.90
2023-07-31T13:07:57.480Z,2.00
2023-07-31T13:10:25.630Z,2.10
2023-07-31T13:12:53.625Z,2.70
2023-07-31T13:15:21.595Z,2.10
2023-07-31T13:17:50.984Z,2.20
2023-07-31T13:20:19.002Z,1.83
2023-07-31T13:22:47.258Z,2.20
2023-07-31T13:25:15.437Z,2.47
2023-07-31T13:27:43.431Z,2.30
2023-07-31T13:30:11.529Z,1.90
2023-07-31T13:32:40.182Z,2.17
2023-07-31T13:35:12.323Z,2.80
2023-07-31T13:37:40.432Z,2.17
2023-07-31T13:40:09.583Z,2.10
2023-07-31T13:42:37.543Z,1.87
2023-07-31T13:45:07.734Z,2.10
2023-07-31T13:47:38.266Z,2.43
2023-07-31T13:50:07.331Z,2.37
2023-07-31T13:52:36.751Z,2.00
2023-07-31T13:55:04.845Z,2.30
2023-07-31T13:57:32.850Z,2.40
2023-07-31T14:00:00.847Z,1.80
2023-07-31T14:02:28.980Z,2.00
2023-07-31T14:04:57.030Z,1.90
2023-07-31T14:07:25.098Z,1.90
2023-07-31T14:09:54.445Z,2.00
2023-07-31T14:12:39.948Z,1.80
2023-07-31T14:15:10.918Z,2.37
2023-07-31T14:17:39.240Z,1.90
2023-07-31T14:20:09.104Z,2.17
2023-07-31T14:22:38.931Z,2.73
2023-07-31T14:25:11.394Z,2.00
2023-07-31T14:27:39.480Z,2.37
2023-07-31T14:30:08.970Z,2.07
2023-07-31T14:32:38.360Z,2.00
2023-07-31T14:35:06.789Z,2.20
2023-07-31T14:37:39.167Z,2.63
2023-07-31T14:40:09.792Z,2.10
2023-07-31T14:42:37.906Z,2.10
2023-07-31T14:45:06.287Z,1.90
2023-07-31T14:47:34.274Z,2.00
2023-07-31T14:50:02.344Z,2.10
2023-07-31T14:52:30.328Z,3.30
2023-07-31T14:54:58.299Z,2.47
2023-07-31T14:57:27.861Z,2.10
2023-07-31T14:59:55.924Z,2.00
2023-07-31T15:02:23.976Z,2.23
2023-07-31T15:04:52.000Z,2.07
2023-07-31T15:07:20.005Z,2.20
2023-07-31T15:09:47.990Z,1.90
2023-07-31T15:12:15.972Z,1.90
2023-07-31T15:14:45.396Z,1.90
2023-07-31T15:17:13.409Z,2.00
2023-07-31T15:19:41.409Z,1.80
2023-07-31T15:22:09.389Z,2.20
2023-07-31T15:24:37.345Z,1.97
2023-07-31T15:27:05.460Z,2.10
2023-07-31T15:29:33.937Z,2.20
2023-07-31T15:32:03.884Z,1.90
2023-07-31T15:34:32.685Z,2.20
2023-07-31T15:37:00.622Z,1.90
2023-07-31T15:39:28.632Z,2.20
2023-07-31T15:41:56.588Z,1.90
2023-07-31T15:44:24.588Z,1.93
2023-07-31T15:46:52.521Z,2.27
2023-07-31T15:49:21.859Z,2.00
2023-07-31T15:51:49.944Z,2.00
2023-07-31T15:54:18.072Z,1.90
2023-07-31T15:56:46.048Z,2.00
2023-07-31T15:59:14.045Z,1.90
2023-07-31T16:01:42.073Z,1.90
2023-07-31T16:04:10.092Z,2.00
2023-07-31T16:06:39.613Z,2.43
2023-07-31T16:09:07.827Z,2.17
2023-07-31T16:11:35.799Z,3.17
2023-07-31T16:14:04.318Z,2.10
2023-07-31T16:16:32.351Z,1.80
2023-07-31T16:19:00.356Z,2.20
2023-07-31T16:21:28.367Z,2.00
2023-07-31T16:23:57.726Z,2.40
2023-07-31T16:26:25.748Z,1.80
2023-07-31T16:28:53.873Z,2.53
2023-07-31T16:31:21.906Z,2.20
2023-07-31T16:33:49.917Z,1.80
2023-07-31T16:36:19.373Z,1.83
2023-07-31T16:38:47.316Z,1.70
2023-07-31T16:41:16.660Z,2.00
2023-07-31T16:43:44.656Z,1.97
2023-07-31T16:46:12.711Z,2.13
2023-07-31T16:48:40.734Z,2.03
2023-07-31T16:51:08.696Z,2.10
2023-07-31T16:53:36.694Z,2.30
2023-07-31T16:56:04.856Z,3.87
2023-07-31T16:58:34.335Z,1.80
2023-07-31T17:01:02.320Z,2.00
2023-07-31T17:03:30.470Z,2.10
2023-07-31T17:05:58.582Z,1.83
2023-07-31T17:08:26.580Z,1.90
2023-07-31T17:10:54.557Z,2.10
2023-07-31T17:13:22.491Z,2.20
2023-07-31T17:15:51.963Z,2.20
2023-07-31T17:18:19.925Z,1.87
2023-07-31T17:20:47.889Z,2.00
2023-07-31T17:23:15.855Z,1.90
2023-07-31T17:25:43.811Z,1.90
2023-07-31T17:28:11.785Z,1.90
2023-07-31T17:30:39.949Z,1.80
2023-07-31T17:33:09.343Z,2.10
2023-07-31T17:35:37.652Z,1.90
2023-07-31T17:38:06.463Z,1.80
2023-07-31T17:40:34.463Z,1.77
2023-07-31T17:43:02.468Z,1.83
2023-07-31T17:45:30.487Z,2.17
2023-07-31T17:47:58.509Z,2.10
2023-07-31T17:50:27.818Z,1.90
2023-07-31T17:52:55.747Z,1.97
2023-07-31T17:55:23.720Z,2.00
2023-07-31T17:57:51.683Z,1.83
2023-07-31T18:00:22.179Z,2.00
2023-07-31T18:02:50.234Z,1.90
2023-07-31T18:05:18.429Z,2.00
2023-07-31T18:07:47.747Z,2.13
2023-07-31T18:10:15.792Z,2.00
2023-07-31T18:12:43.881Z,1.90
2023-07-31T18:15:12.460Z,2.03
2023-07-31T18:17:40.501Z,2.00
2023-07-31T18:20:11.121Z,2.43
2023-07-31T18:22:39.165Z,3.00
2023-07-31T18:25:10.045Z,1.90
2023-07-31T18:27:38.156Z,2.10
2023-07-31T18:30:07.049Z,1.90
2023-07-31T18:32:35.055Z,2.10
2023-07-31T18:35:03.040Z,2.10
2023-07-31T18:37:31.050Z,2.00
2023-07-31T18:39:59.011Z,2.00
2023-07-31T18:42:28.335Z,1.90
2023-07-31T18:44:56.287Z,1.77
2023-07-31T18:47:24.365Z,2.00
2023-07-31T18:49:52.363Z,1.80
2023-07-31T18:52:20.281Z,2.30
2023-07-31T18:54:48.418Z,1.93
2023-07-31T18:57:16.374Z,2.00
2023-07-31T18:59:45.724Z,1.90
2023-07-31T19:02:13.672Z,2.07
2023-07-31T19:04:41.618Z,1.90
2023-07-31T19:07:09.572Z,1.97
2023-07-31T19:09:37.560Z,2.03
2023-07-31T19:12:06.194Z,1.90
2023-07-31T19:14:34.172Z,2.00
2023-07-31T19:17:03.520Z,1.87
2023-07-31T19:19:31.529Z,1.80
2023-07-31T19:21:59.521Z,1.80
2023-07-31T19:24:34.757Z,1.80
2023-07-31T19:27:04.774Z,1.90
2023-07-31T19:29:32.712Z,2.17
2023-07-31T19:32:00.710Z,2.23
2023-07-31T19:34:30.101Z,2.00
2023-07-31T19:36:58.066Z,2.60
2023-07-31T19:39:26.413Z,2.00
2023-07-31T19:41:54.379Z,2.10
2023-07-31T19:44:22.357Z,1.80
2023-07-31T19:46:50.301Z,2.10
2023-07-31T19:49:18.335Z,1.90
2023-07-31T19:51:47.671Z,2.00
2023-07-31T19:54:17.432Z,2.17
2023-07-31T19:56:45.402Z,1.97
2023-07-31T19:59:13.406Z,1.87
2023-07-31T20:01:41.353Z,1.87
2023-07-31T20:04:09.310Z,2.23
2023-07-31T20:06:37.642Z,3.50
2023-07-31T20:09:07.063Z,9.20
2023-07-31T20:11:35.106Z,11.53
2023-07-31T20:14:06.758Z,6.77
2023-07-31T20:16:36.804Z,9.40
2023-07-31T20:19:04.996Z,6.37
2023-07-31T20:21:33.086Z,3.27
2023-07-31T20:24:01.041Z,2.60
2023-07-31T20:26:30.404Z,3.63
2023-07-31T20:28:58.346Z,5.10
2023-07-31T20:31:26.367Z,2.27
2023-07-31T20:33:54.422Z,2.40
2023-07-31T20:36:22.434Z,3.60
2023-07-31T20:38:50.369Z,3.60
2023-07-31T20:41:18.280Z,3.20
2023-07-31T20:43:47.624Z,13.43
2023-07-31T20:46:17.584Z,10.70
2023-07-31T20:48:48.147Z,8.10
2023-07-31T20:51:16.117Z,3.50
2023-07-31T20:53:44.078Z,8.70
2023-07-31T20:56:12.057Z,18.40
2023-07-31T20:58:40.553Z,21.73
2023-07-31T21:01:09.883Z,11.90
2023-07-31T21:03:38.066Z,5.23
2023-07-31T21:06:06.093Z,7.30
2023-07-31T21:08:34.146Z,4.37
2023-07-31T21:11:02.415Z,6.67
2023-07-31T21:13:30.390Z,4.90
2023-07-31T21:16:01.462Z,3.70
2023-07-31T21:18:30.896Z,7.70
2023-07-31T21:20:58.819Z,7.50
2023-07-31T21:23:26.818Z,6.10
2023-07-31T21:25:54.769Z,2.50
2023-07-31T21:28:22.840Z,7.77
2023-07-31T21:30:50.834Z,6.60
2023-07-31T21:33:18.813Z,6.43
2023-07-31T21:35:48.161Z,9.03
2023-07-31T21:38:17.048Z,4.27
2023-07-31T21:40:45.048Z,8.13
2023-07-31T21:43:13.125Z,4.50
2023-07-31T21:45:41.069Z,10.33
2023-07-31T21:48:09.014Z,4.73
2023-07-31T21:50:36.974Z,4.27
2023-07-31T21:53:06.898Z,4.23
2023-07-31T21:55:34.842Z,14.90
2023-07-31T21:58:02.772Z,25.83
2023-07-31T22:00:30.732Z,5.70
2023-07-31T22:02:58.733Z,2.97
2023-07-31T22:05:26.713Z,4.87
2023-07-31T22:07:54.644Z,4.97
2023-07-31T22:10:23.937Z,3.70
2023-07-31T22:12:51.897Z,3.13
2023-07-31T22:15:19.827Z,2.73
2023-07-31T22:17:47.847Z,5.03
2023-07-31T22:20:16.031Z,4.87
2023-07-31T22:22:43.987Z,2.53
2023-07-31T22:25:11.938Z,3.70
2023-07-31T22:27:41.224Z,6.00
2023-07-31T22:30:12.090Z,4.87
2023-07-31T22:32:40.532Z,3.10
2023-07-31T22:35:08.889Z,4.73
2023-07-31T22:37:36.892Z,3.53
2023-07-31T22:40:05.316Z,6.10
2023-07-31T22:42:34.223Z,2.33
2023-07-31T22:45:03.550Z,2.67
2023-07-31T22:47:31.535Z,2.40
2023-07-31T22:49:59.575Z,2.60
2023-07-31T22:52:27.610Z,2.50
2023-07-31T22:54:55.551Z,3.40
2023-07-31T22:57:23.636Z,2.83
2023-07-31T22:59:54.313Z,2.40
2023-07-31T23:02:23.730Z,6.03
2023-07-31T23:04:53.599Z,5.03
2023-07-31T23:07:21.676Z,3.20
2023-07-31T23:09:52.160Z,2.27
2023-07-31T23:12:20.454Z,2.30
2023-07-31T23:14:48.444Z,4.37
2023-07-31T23:17:16.418Z,6.40
2023-07-31T23:19:45.911Z,5.23
2023-07-31T23:22:14.269Z,3.10
2023-07-31T23:24:45.235Z,5.27
2023-07-31T23:27:13.200Z,5.03
2023-07-31T23:29:41.282Z,2.17
2023-07-31T23:32:09.906Z,2.60
2023-07-31T23:34:37.998Z,2.70
2023-07-31T23:37:08.418Z,4.57
2023-07-31T23:39:36.362Z,4.57
2023-07-31T23:42:04.370Z,5.10
2023-07-31T23:44:32.365Z,3.00
2023-07-31T23:47:00.317Z,4.47
2023-07-31T23:49:28.277Z,2.30
2023-07-31T23:51:56.255Z,4.97
2023-07-31T23:54:25.585Z,2.40
2023-07-31T23:56:53.564Z,2.20
2023-07-31T23:59:21.555Z,2.70
